createdAt,value
2022-12-23T00:03:26.563Z,3.61
2022-12-23T00:08:31.205Z,3.59
2022-12-23T00:13:53.088Z,3.94
2022-12-23T00:18:59.630Z,4.12
2022-12-23T00:24:04.344Z,3.96
2022-12-23T00:29:08.995Z,3.94
2022-12-23T00:34:14.954Z,4.05
2022-12-23T00:39:36.692Z,3.36
2022-12-23T00:44:42.116Z,3.51
2022-12-23T00:49:48.429Z,3.25
2022-12-23T00:54:52.914Z,3.42
2022-12-23T00:59:57.444Z,3.87
2022-12-23T01:05:21.056Z,3.41
2022-12-23T01:10:25.518Z,3.28
2022-12-23T01:15:29.965Z,3.12
2022-12-23T01:20:35.995Z,3.37
2022-12-23T01:25:40.462Z,3.49
2022-12-23T01:30:44.894Z,3.05
2022-12-23T01:35:50.918Z,3.33
2022-12-23T01:40:55.761Z,3.98
2022-12-23T01:46:00.829Z,4.00
2022-12-23T01:51:10.161Z,3.27
2022-12-23T01:56:18.575Z,3.13
2022-12-23T02:01:41.107Z,3.66
2022-12-23T02:07:07.316Z,3.45
2022-12-23T02:12:33.090Z,3.44
2022-12-23T02:17:45.623Z,3.40
2022-12-23T02:23:16.860Z,3.48
2022-12-23T02:28:51.029Z,3.50
2022-12-23T02:34:03.894Z,3.16
2022-12-23T02:39:12.265Z,3.89
2022-12-23T02:44:24.821Z,3.65
2022-12-23T02:49:34.948Z,3.66
2022-12-23T02:54:46.522Z,3.21
2022-12-23T02:59:53.459Z,2.98
2022-12-23T03:05:00.960Z,3.31
2022-12-23T03:10:14.907Z,3.09
2022-12-23T03:15:28.785Z,3.31
2022-12-23T03:20:44.210Z,4.13
2022-12-23T03:25:59.183Z,3.90
2022-12-23T03:31:05.303Z,3.64
2022-12-23T03:36:14.832Z,3.77
2022-12-23T03:41:26.492Z,3.93
2022-12-23T03:46:35.773Z,3.70
2022-12-23T03:51:47.607Z,3.47
2022-12-23T03:56:56.335Z,3.30
2022-12-23T04:02:08.700Z,3.93
2022-12-23T04:07:20.052Z,3.96
2022-12-23T04:12:26.969Z,3.59
2022-12-23T04:17:31.430Z,3.50
2022-12-23T04:22:37.702Z,3.91
2022-12-23T04:27:42.261Z,4.05
2022-12-23T04:32:46.941Z,3.10
2022-12-23T04:37:52.841Z,3.01
2022-12-23T04:42:59.721Z,3.13
2022-12-23T04:48:04.305Z,2.80
2022-12-23T04:53:10.500Z,3.06
2022-12-23T04:58:15.123Z,3.45
2022-12-23T05:03:19.942Z,2.97
2022-12-23T05:08:26.050Z,2.87
2022-12-23T05:13:30.553Z,3.32
2022-12-23T05:18:35.180Z,2.92
2022-12-23T05:23:41.310Z,3.39
2022-12-23T05:28:47.561Z,2.70
2022-12-23T05:33:52.208Z,2.85
2022-12-23T05:38:58.688Z,3.13
2022-12-23T05:44:03.143Z,3.42
2022-12-23T05:49:07.645Z,3.09
2022-12-23T05:54:13.568Z,2.59
2022-12-23T05:59:19.517Z,3.08
2022-12-23T06:04:24.169Z,2.94
2022-12-23T06:09:30.401Z,3.15
2022-12-23T06:14:35.047Z,3.57
2022-12-23T06:19:39.869Z,3.43
2022-12-23T06:24:46.183Z,3.36
2022-12-23T06:29:51.208Z,3.91
2022-12-23T06:34:57.938Z,3.17
2022-12-23T06:40:05.523Z,3.14
2022-12-23T06:45:11.469Z,3.35
2022-12-23T06:50:16.047Z,4.08
2022-12-23T06:55:21.968Z,3.15
2022-12-23T07:00:26.655Z,3.98
2022-12-23T07:05:37.013Z,4.02
2022-12-23T07:10:44.011Z,4.38
2022-12-23T07:15:48.607Z,4.83
2022-12-23T07:20:53.480Z,4.75
2022-12-23T07:25:59.521Z,4.54
2022-12-23T07:31:06.987Z,4.57
2022-12-23T07:36:11.629Z,4.68
2022-12-23T07:41:17.661Z,5.13
2022-12-23T07:46:22.459Z,4.86
2022-12-23T07:51:27.206Z,4.57
2022-12-23T07:56:33.329Z,4.87
2022-12-23T08:01:37.906Z,4.92
2022-12-23T08:06:42.770Z,4.82
2022-12-23T08:11:48.779Z,5.48
2022-12-23T08:16:53.372Z,4.61
2022-12-23T08:22:00.380Z,5.03
2022-12-23T08:27:06.475Z,4.89
2022-12-23T08:32:11.089Z,4.90
2022-12-23T08:37:15.559Z,4.92
2022-12-23T08:42:21.526Z,5.45
2022-12-23T08:47:25.653Z,5.75
2022-12-23T08:52:30.249Z,5.21
2022-12-23T08:57:37.081Z,5.40
2022-12-23T09:02:41.891Z,5.60
2022-12-23T09:07:47.064Z,6.40
2022-12-23T09:12:53.390Z,6.11
2022-12-23T09:17:57.879Z,5.46
2022-12-23T09:23:02.637Z,5.52
2022-12-23T09:28:09.386Z,5.64
2022-12-23T09:33:14.780Z,5.53
2022-12-23T09:38:19.133Z,5.57
2022-12-23T09:43:33.741Z,6.30
2022-12-23T09:48:43.599Z,6.05
2022-12-23T09:53:58.011Z,5.87
2022-12-23T09:59:12.848Z,6.24
2022-12-23T10:04:35.752Z,6.29
2022-12-23T10:09:42.616Z,6.71
2022-12-23T10:14:51.792Z,7.69
2022-12-23T10:20:01.072Z,7.58
2022-12-23T10:25:14.611Z,7.39
2022-12-23T10:35:57.910Z,8.31
2022-12-23T10:41:10.012Z,8.40
2022-12-23T10:46:24.871Z,7.84
2022-12-23T10:51:34.815Z,7.57
2022-12-23T10:56:40.390Z,7.41
2022-12-23T11:01:51.570Z,7.52
2022-12-23T11:07:26.179Z,7.90
2022-12-23T11:12:24.992Z,7.57
2022-12-23T11:17:33.369Z,7.05
2022-12-23T11:22:47.961Z,6.77
2022-12-23T11:27:55.980Z,5.88
2022-12-23T11:33:02.023Z,6.80
2022-12-23T11:38:13.756Z,6.32
2022-12-23T11:43:21.114Z,5.58
2022-12-23T11:48:31.811Z,5.15
2022-12-23T11:53:38.129Z,5.22
2022-12-23T11:58:50.159Z,5.39
2022-12-23T12:04:00.742Z,5.14
2022-12-23T12:09:07.265Z,5.71
2022-12-23T12:14:23.304Z,5.90
2022-12-23T12:19:30.529Z,5.43
2022-12-23T12:24:40.281Z,5.22
2022-12-23T12:29:50.393Z,4.94
2022-12-23T12:35:00.242Z,5.00
2022-12-23T12:40:15.378Z,4.79
2022-12-23T12:45:25.245Z,4.82
2022-12-23T12:50:35.325Z,4.78
2022-12-23T12:55:59.806Z,4.16
2022-12-23T13:01:18.858Z,4.79
2022-12-23T13:06:35.967Z,4.68
2022-12-23T13:11:47.514Z,4.65
2022-12-23T13:17:04.176Z,4.73
2022-12-23T13:22:14.290Z,4.75
2022-12-23T13:27:23.326Z,4.82
2022-12-23T13:32:44.915Z,4.66
2022-12-23T13:37:57.950Z,4.88
2022-12-23T13:43:11.674Z,4.73
2022-12-23T13:48:32.149Z,5.55
2022-12-23T13:53:51.235Z,4.74
2022-12-23T13:58:59.220Z,4.60
2022-12-23T14:04:36.084Z,4.50
2022-12-23T14:09:43.309Z,4.62
2022-12-23T14:15:04.313Z,4.55
2022-12-23T14:20:21.831Z,4.69
2022-12-23T14:25:54.253Z,4.43
2022-12-23T14:30:59.410Z,4.85
2022-12-23T14:36:26.632Z,4.66
2022-12-23T14:41:50.639Z,4.48
2022-12-23T14:47:02.744Z,4.99
2022-12-23T14:52:50.590Z,4.56
2022-12-23T14:58:08.705Z,4.15
2022-12-23T15:03:14.223Z,4.79
2022-12-23T15:08:32.076Z,4.12
2022-12-23T15:13:39.428Z,4.52
2022-12-23T15:18:54.246Z,4.39
2022-12-23T15:23:58.895Z,4.41
2022-12-23T15:29:08.398Z,4.81
2022-12-23T15:34:22.590Z,4.77
2022-12-23T15:39:33.720Z,4.73
2022-12-23T15:44:40.915Z,5.08
2022-12-23T15:49:46.452Z,4.69
2022-12-23T15:55:04.306Z,4.57
2022-12-23T16:00:20.939Z,4.47
2022-12-23T16:05:30.361Z,4.29
2022-12-23T16:10:35.034Z,4.58
2022-12-23T16:15:41.080Z,4.32
2022-12-23T16:20:48.462Z,4.37
2022-12-23T16:25:54.822Z,4.55
2022-12-23T16:31:00.901Z,4.34
2022-12-23T16:36:33.382Z,4.18
2022-12-23T16:41:38.263Z,4.27
2022-12-23T16:46:49.218Z,4.00
2022-12-23T16:52:10.732Z,3.69
2022-12-23T16:57:27.913Z,4.08
2022-12-23T17:02:36.456Z,4.00
2022-12-23T17:07:45.671Z,4.66
2022-12-23T17:13:27.618Z,4.44
2022-12-23T17:18:43.116Z,4.35
2022-12-23T17:24:20.105Z,4.13
2022-12-23T17:29:28.563Z,4.29
2022-12-23T17:34:53.014Z,4.37
2022-12-23T17:40:02.162Z,4.45
2022-12-23T17:45:10.709Z,4.47
2022-12-23T17:50:16.871Z,4.32
2022-12-23T17:55:23.036Z,4.58
2022-12-23T18:00:33.971Z,4.55
2022-12-23T18:05:40.450Z,4.78
2022-12-23T18:10:45.749Z,4.26
2022-12-23T18:15:51.375Z,4.35
2022-12-23T18:20:58.770Z,4.23
2022-12-23T18:26:03.314Z,4.09
2022-12-23T18:31:08.207Z,4.29
2022-12-23T18:36:22.797Z,4.45
2022-12-23T18:41:28.839Z,4.54
2022-12-23T18:46:33.060Z,4.39
2022-12-23T18:51:39.137Z,4.89
2022-12-23T18:56:44.053Z,5.15
2022-12-23T19:01:48.970Z,5.14
2022-12-23T19:06:56.452Z,5.29
2022-12-23T19:12:01.009Z,5.17
2022-12-23T19:17:05.634Z,5.52
2022-12-23T19:22:11.751Z,4.95
2022-12-23T19:27:16.494Z,5.00
2022-12-23T19:32:21.127Z,5.12
2022-12-23T19:37:27.573Z,5.14
2022-12-23T19:42:33.982Z,5.00
2022-12-23T19:47:38.934Z,5.05
2022-12-23T19:52:44.982Z,5.46
2022-12-23T19:57:49.194Z,5.90
2022-12-23T20:02:58.633Z,5.37
2022-12-23T20:08:05.356Z,5.79
2022-12-23T20:13:09.831Z,5.11
2022-12-23T20:18:14.407Z,5.71
2022-12-23T20:23:20.481Z,5.40
2022-12-23T20:28:25.212Z,5.63
2022-12-23T20:33:29.753Z,5.46
2022-12-23T20:38:37.235Z,5.44
2022-12-23T20:43:42.608Z,6.08
2022-12-23T20:48:48.833Z,5.10
2022-12-23T20:53:58.708Z,5.48
2022-12-23T20:59:04.178Z,5.13
2022-12-23T21:04:11.583Z,4.97
2022-12-23T21:09:17.993Z,5.11
2022-12-23T21:14:22.477Z,5.15
2022-12-23T21:19:27.904Z,4.95
2022-12-23T21:24:35.593Z,5.81
2022-12-23T21:29:40.256Z,5.17
2022-12-23T21:34:44.790Z,5.69
2022-12-23T21:39:52.674Z,5.17
2022-12-23T21:44:57.197Z,5.48
2022-12-23T21:50:01.756Z,5.78
2022-12-23T21:55:08.427Z,5.53
2022-12-23T22:00:13.689Z,5.29
2022-12-23T22:05:18.257Z,5.42
2022-12-23T22:10:24.163Z,5.79
2022-12-23T22:15:28.746Z,5.78
2022-12-23T22:20:41.165Z,6.05
2022-12-23T22:25:55.105Z,5.75
2022-12-23T22:31:03.624Z,5.51
2022-12-23T22:36:09.036Z,5.97
2022-12-23T22:41:16.219Z,5.93
2022-12-23T22:46:21.058Z,5.10
2022-12-23T22:51:27.712Z,5.69
2022-12-23T22:56:33.879Z,5.58
2022-12-23T23:01:40.173Z,5.69
2022-12-23T23:06:44.752Z,6.81
2022-12-23T23:11:51.447Z,6.68
2022-12-23T23:16:56.134Z,6.63
2022-12-23T23:22:01.141Z,5.63
2022-12-23T23:27:07.218Z,6.04
2022-12-23T23:32:11.677Z,5.29
2022-12-23T23:37:16.223Z,5.65
2022-12-23T23:42:22.202Z,6.50
2022-12-23T23:47:26.751Z,6.09
2022-12-23T23:52:31.267Z,6.20
2022-12-23T23:57:37.240Z,6.86
